Time;durP1;ratioP1;P1;durP2;ratioP2;P2;SDS_P1;SDS_P2;PMS_P1;PMS_P2;Temp;Humidity;BMP_temperature;BMP_pressure;BME280_temperature;BME280_humidity;BME280_pressure;Samples;Min_cycle;Max_cycle;Signal;HPM_P1;HPM_P2
2023/07/05 00:00:20;;;;;;;6.30;4.40;;;;;;;18.32;64.28;96668.44;108797;1264;22541;-85
2023/07/05 00:03:08;;;;;;;10.10;5.20;;;;;;;18.31;64.25;96663.65;108763;1275;22619;-85
2023/07/05 00:05:37;;;;;;;7.60;5.10;;;;;;;18.29;64.44;96664.02;108782;1276;23660;-84
2023/07/05 00:08:06;;;;;;;9.10;4.90;;;;;;;18.25;64.58;96666.63;108808;1275;22556;-85
2023/07/05 00:10:35;;;;;;;9.70;5.20;;;;;;;18.24;64.72;96666.14;108809;1276;24294;-85
2023/07/05 00:13:04;;;;;;;10.50;5.50;;;;;;;18.29;64.76;96665.70;108770;1276;24282;-85
2023/07/05 00:15:33;;;;;;;7.60;5.40;;;;;;;18.34;64.83;96664.15;108779;1275;50199;-85
2023/07/05 00:18:03;;;;;;;9.70;5.70;;;;;;;18.39;64.83;96665.18;108809;1272;22543;-86
2023/07/05 00:20:32;;;;;;;9.10;6.20;;;;;;;18.40;64.88;96663.97;108775;1275;22953;-85
2023/07/05 00:23:00;;;;;;;10.90;5.90;;;;;;;18.39;65.02;96662.65;108834;1272;22619;-85
2023/07/05 00:25:29;;;;;;;13.20;7.70;;;;;;;18.39;65.04;96663.95;108744;1270;30032;-85
2023/07/05 00:27:58;;;;;;;10.20;7.00;;;;;;;18.38;65.12;96661.21;108794;1275;23353;-84
2023/07/05 00:30:27;;;;;;;11.40;7.70;;;;;;;18.42;65.34;96663.88;108790;1275;22717;-85
2023/07/05 00:32:55;;;;;;;12.90;8.40;;;;;;;18.47;65.40;96664.98;108817;1275;22640;-85
2023/07/05 00:35:24;;;;;;;11.40;7.10;;;;;;;18.48;65.34;96660.48;108758;1276;26899;-85
2023/07/05 00:37:52;;;;;;;9.70;7.30;;;;;;;18.49;65.37;96658.46;108775;1275;22640;-84
2023/07/05 00:40:21;;;;;;;9.40;7.00;;;;;;;18.50;65.43;96658.59;108810;1275;22553;-84
2023/07/05 00:42:49;;;;;;;10.50;6.80;;;;;;;18.47;65.35;96661.57;108792;1275;22528;-85
2023/07/05 00:45:50;;;;;;;9.00;6.60;;;;;;;18.47;65.39;96661.23;108756;1276;32799;-84
2023/07/05 00:48:23;;;;;;;9.90;6.70;;;;;;;18.45;65.44;96660.95;108789;1270;22549;-85
2023/07/05 00:50:56;;;;;;;12.10;6.30;;;;;;;18.46;65.56;96662.37;108781;1272;22630;-85
2023/07/05 00:53:27;;;;;;;12.30;6.90;;;;;;;18.49;65.56;96655.39;108807;1275;22546;-85
2023/07/05 00:56:01;;;;;;;10.10;6.60;;;;;;;18.50;65.48;96655.98;108756;1268;45469;-85
2023/07/05 00:58:30;;;;;;;9.80;7.50;;;;;;;18.50;65.52;96651.94;108813;1276;24295;-85
2023/07/05 01:00:58;;;;;;;;;;;;;;;18.48;65.49;96651.86;108828;1268;22502;-85
2023/07/05 01:03:28;;;;;;;8.60;6.30;;;;;;;18.44;65.60;96655.92;108811;1276;22574;-84
2023/07/05 01:05:59;;;;;;;10.50;7.30;;;;;;;18.44;65.68;96653.44;108787;1268;31964;-84
2023/07/05 01:08:28;;;;;;;11.30;7.10;;;;;;;18.45;65.69;96651.25;108787;1275;25236;-85
2023/07/05 01:11:05;;;;;;;12.60;7.60;;;;;;;18.47;65.77;96650.36;108799;1268;25393;-84
2023/07/05 01:13:42;;;;;;;9.70;6.70;;;;;;;18.48;65.73;96648.30;108801;1275;22535;-85
2023/07/05 01:16:27;;;;;;;10.90;7.70;;;;;;;18.48;65.80;96643.40;108782;1275;22565;-85
2023/07/05 01:19:05;;;;;;;9.60;6.60;;;;;;;18.47;65.74;96642.30;108813;1264;23989;-84
2023/07/05 01:21:47;;;;;;;10.80;7.00;;;;;;;18.45;65.86;96638.94;108767;1268;22527;-85
2023/07/05 01:24:44;;;;;;;10.10;6.90;;;;;;;18.44;65.86;96638.27;108745;1270;37640;-84
2023/07/05 01:27:36;;;;;;;11.70;7.30;;;;;;;18.44;65.92;96636.66;108797;1272;22540;-85
2023/07/05 01:30:36;;;;;;;11.90;7.20;;;;;;;18.43;65.97;96628.27;108787;1273;22523;-84
2023/07/05 01:33:08;;;;;;;11.60;7.70;;;;;;;18.41;65.92;96631.11;108828;1275;22527;-85
2023/07/05 01:35:41;;;;;;;10.70;7.70;;;;;;;18.38;66.07;96628.78;108811;1275;23046;-85
2023/07/05 01:38:10;;;;;;;11.30;7.40;;;;;;;18.36;66.09;96626.34;108887;1270;24233;-85
2023/07/05 01:41:00;;;;;;;11.50;6.90;;;;;;;18.36;66.16;96624.27;108905;1270;22528;-85
2023/07/05 01:43:32;;;;;;;9.60;6.30;;;;;;;18.32;66.12;96624.50;108881;1275;22516;-85
2023/07/05 01:46:20;;;;;;;10.30;6.90;;;;;;;18.27;66.25;96622.92;108887;1276;39341;-85
2023/07/05 01:49:05;;;;;;;11.10;7.50;;;;;;;18.25;66.29;96626.38;108909;1270;22537;-85
2023/07/05 01:51:40;;;;;;;11.40;7.10;;;;;;;18.24;66.36;96626.66;108907;1270;22524;-85
2023/07/05 01:54:14;;;;;;;9.30;6.40;;;;;;;18.24;66.42;96624.73;108798;1272;58887;-85
2023/07/05 01:56:55;;;;;;;10.40;7.00;;;;;;;18.23;66.52;96629.14;108881;1275;24283;-84
2023/07/05 01:59:30;;;;;;;12.40;7.60;;;;;;;18.23;66.58;96621.19;108887;1268;22491;-85
2023/07/05 02:02:01;;;;;;;9.10;6.80;;;;;;;18.23;66.59;96621.48;108860;1263;22582;-85
2023/07/05 02:04:35;;;;;;;10.60;7.40;;;;;;;18.23;66.63;96623.61;108865;1271;37532;-85
2023/07/05 02:07:05;;;;;;;10.80;7.20;;;;;;;18.22;66.64;96626.94;108890;1275;22531;-84
2023/07/05 02:09:37;;;;;;;9.80;7.00;;;;;;;18.19;66.64;96625.77;108891;1275;22530;-85
2023/07/05 02:12:08;;;;;;;12.00;7.50;;;;;;;18.15;66.80;96628.49;108772;1275;24223;-85
2023/07/05 02:14:36;;;;;;;9.80;7.10;;;;;;;18.13;66.88;96629.27;108776;1275;24250;-85
2023/07/05 02:17:05;;;;;;;10.20;7.00;;;;;;;18.10;66.91;96625.03;108830;1275;22569;-85
2023/07/05 02:19:34;;;;;;;12.70;7.30;;;;;;;18.07;67.03;96630.30;108823;1275;22604;-85
2023/07/05 02:22:03;;;;;;;10.00;7.00;;;;;;;18.05;67.16;96631.61;108818;1275;24194;-84
2023/07/05 02:24:32;;;;;;;10.90;6.80;;;;;;;18.03;67.27;96635.31;108771;1264;50693;-85
2023/07/05 02:27:00;;;;;;;11.80;7.50;;;;;;;18.04;67.38;96631.36;108802;1270;22709;-85
2023/07/05 02:29:30;;;;;;;10.20;7.30;;;;;;;18.05;67.46;96631.92;108813;1269;25529;-85
2023/07/05 02:32:00;;;;;;;10.50;7.60;;;;;;;18.07;67.45;96632.38;108829;1271;22534;-84
2023/07/05 02:34:29;;;;;;;10.90;7.30;;;;;;;18.06;67.53;96633.02;108793;1273;30497;-85
2023/07/05 02:36:57;;;;;;;11.20;7.40;;;;;;;18.04;67.49;96632.72;108803;1275;22552;-84
2023/07/05 02:39:26;;;;;;;10.10;7.50;;;;;;;18.03;67.51;96629.41;108809;1273;24280;-85
2023/07/05 02:41:55;;;;;;;9.10;6.90;;;;;;;18.04;67.52;96630.67;108782;1275;25429;-84
2023/07/05 02:44:23;;;;;;;10.90;7.40;;;;;;;18.04;67.58;96625.21;108740;1270;110475;-84
2023/07/05 02:46:52;;;;;;;10.70;7.70;;;;;;;18.04;67.67;96628.43;108788;1275;22541;-85
2023/07/05 02:49:20;;;;;;;10.00;7.50;;;;;;;18.04;67.72;96630.14;108795;1275;23093;-85
2023/07/05 02:51:49;;;;;;;13.30;7.80;;;;;;;18.04;67.69;96630.82;108821;1273;23392;-85
2023/07/05 02:54:17;;;;;;;10.80;8.10;;;;;;;18.02;67.80;96628.27;108797;1270;22576;-85
2023/07/05 02:56:45;;;;;;;13.80;8.40;;;;;;;18.01;68.04;96625.36;108775;1275;25396;-85
2023/07/05 02:59:14;;;;;;;12.20;8.40;;;;;;;18.02;68.14;96623.08;108846;1270;22616;-85
2023/07/05 03:01:43;;;;;;;14.20;9.00;;;;;;;18.01;68.26;96623.58;108895;1271;23304;-85
2023/07/05 03:04:12;;;;;;;12.70;8.90;;;;;;;18.01;68.31;96624.54;108788;1266;45339;-84
2023/07/05 03:06:40;;;;;;;;;;;;;;;18.03;68.49;96619.66;108845;1270;25396;-85
2023/07/05 03:09:08;;;;;;;11.20;7.90;;;;;;;18.03;68.68;96621.11;108802;1275;22654;-85
2023/07/05 03:11:37;;;;;;;11.30;8.60;;;;;;;18.05;68.70;96623.72;108799;1275;22537;-85
2023/07/05 03:14:05;;;;;;;15.70;8.60;;;;;;;18.07;68.83;96625.09;108764;1265;73284;-85
2023/07/05 03:16:34;;;;;;;13.90;8.30;;;;;;;18.11;68.88;96626.38;108773;1270;23557;-86
2023/07/05 03:19:05;;;;;;;12.10;7.80;;;;;;;18.14;68.91;96627.17;108832;1268;23495;-85
2023/07/05 03:21:34;;;;;;;11.10;7.70;;;;;;;18.17;68.84;96626.70;108849;1275;21835;-85
2023/07/05 03:24:03;;;;;;;10.90;7.80;;;;;;;18.19;68.86;96630.23;108804;1275;22544;-85
2023/07/05 03:26:31;;;;;;;12.50;8.40;;;;;;;18.21;68.91;96629.52;108709;1275;24236;-85
2023/07/05 03:29:02;;;;;;;11.90;8.40;;;;;;;18.22;68.85;96628.20;108852;1272;22606;-85
2023/07/05 03:31:30;;;;;;;10.30;6.50;;;;;;;18.25;69.00;96625.38;108840;1269;25248;-85
2023/07/05 03:33:59;;;;;;;12.30;7.40;;;;;;;18.25;68.86;96630.98;108755;1275;67771;-85
2023/07/05 03:36:27;;;;;;;10.10;7.60;;;;;;;18.25;68.92;96631.30;108804;1275;23324;-85
2023/07/05 03:38:56;;;;;;;12.10;8.30;;;;;;;18.27;69.00;96631.29;108828;1270;22738;-85
2023/07/05 03:41:26;;;;;;;13.70;8.80;;;;;;;18.29;69.02;96630.90;108798;1275;26537;-85
2023/07/05 03:43:57;;;;;;;11.40;8.60;;;;;;;18.31;69.01;96629.98;108772;1275;48281;-85
2023/07/05 03:46:27;;;;;;;10.70;8.20;;;;;;;18.32;69.02;96628.48;108827;1275;25440;-85
2023/07/05 03:48:56;;;;;;;12.20;8.20;;;;;;;18.32;69.02;96633.55;108814;1275;24275;-85
2023/07/05 03:51:25;;;;;;;10.70;7.70;;;;;;;18.34;69.06;96629.35;108805;1275;22588;-85
2023/07/05 03:53:55;;;;;;;;;;;;;;;18.36;68.97;96622.58;108783;1275;64179;-86
2023/07/05 03:56:25;;;;;;;12.20;8.20;;;;;;;18.35;68.97;96622.17;108830;1275;22535;-86
2023/07/05 03:58:55;;;;;;;12.40;9.00;;;;;;;18.38;68.98;96621.67;108796;1275;22552;-86
2023/07/05 04:01:25;;;;;;;12.50;8.50;;;;;;;18.43;69.04;96626.66;108783;1275;24161;-86
2023/07/05 04:03:56;;;;;;;10.60;7.70;;;;;;;18.50;69.11;96623.30;108780;1275;22527;-86
2023/07/05 04:06:28;;;;;;;13.00;8.40;;;;;;;18.56;69.22;96623.35;108792;1275;26415;-85
2023/07/05 04:08:56;;;;;;;12.40;8.00;;;;;;;18.60;69.00;96624.98;108804;1268;22556;-86
2023/07/05 04:11:25;;;;;;;11.90;8.30;;;;;;;18.63;68.94;96626.70;108828;1273;22527;-87
2023/07/05 04:13:55;;;;;;;10.00;7.50;;;;;;;18.67;69.02;96626.94;108776;1270;36008;-86
2023/07/05 04:16:25;;;;;;;11.50;8.00;;;;;;;18.73;69.14;96629.48;108724;1275;22644;-86
2023/07/05 04:18:56;;;;;;;11.70;8.10;;;;;;;18.79;69.40;96628.57;108861;1268;22577;-85
2023/07/05 04:21:25;;;;;;;10.80;8.20;;;;;;;18.85;69.62;96626.57;108811;1275;22550;-86
2023/07/05 04:23:55;;;;;;;12.30;8.50;;;;;;;18.92;69.99;96629.73;108836;1269;24361;-86
2023/07/05 04:26:26;;;;;;;11.70;8.40;;;;;;;18.96;69.40;96628.55;108810;1275;25499;-87
2023/07/05 04:28:56;;;;;;;11.10;8.10;;;;;;;19.00;69.15;96630.48;108791;1267;22576;-86
2023/07/05 04:31:28;;;;;;;11.30;8.00;;;;;;;19.04;68.86;96631.15;108861;1272;22813;-86
2023/07/05 04:33:57;;;;;;;11.20;7.60;;;;;;;19.06;68.66;96630.20;108792;1275;27924;-87
2023/07/05 04:36:26;;;;;;;12.50;7.90;;;;;;;19.09;68.63;96631.61;108820;1275;24012;-86
2023/07/05 04:38:55;;;;;;;12.30;7.60;;;;;;;19.12;68.45;96627.95;108827;1264;25381;-87
2023/07/05 04:41:24;;;;;;;11.50;7.60;;;;;;;19.13;68.23;96628.20;108821;1261;22552;-87
2023/07/05 04:43:52;;;;;;;11.80;7.70;;;;;;;19.16;68.14;96633.23;108844;1275;22511;-87
2023/07/05 04:46:22;;;;;;;12.00;7.40;;;;;;;19.19;68.16;96633.44;108831;1274;22521;-87
2023/07/05 04:48:50;;;;;;;12.40;7.50;;;;;;;19.26;68.02;96637.34;108792;1268;22520;-87
2023/07/05 04:51:19;;;;;;;9.20;6.70;;;;;;;19.34;68.00;96637.90;108817;1275;22531;-87
2023/07/05 04:53:48;;;;;;;12.70;8.10;;;;;;;19.43;67.85;96637.45;108869;1275;21819;-87
2023/07/05 04:56:16;;;;;;;11.50;7.70;;;;;;;19.48;67.81;96638.52;108887;1263;24046;-87
2023/07/05 04:58:48;;;;;;;10.10;6.60;;;;;;;19.54;67.72;96636.66;108961;1270;26425;-86
2023/07/05 05:01:18;;;;;;;10.00;6.60;;;;;;;19.62;67.63;96636.17;108984;1268;22567;-88
2023/07/05 05:03:46;;;;;;;10.30;6.60;;;;;;;19.71;67.39;96639.38;108900;1274;22591;-87
2023/07/05 05:06:15;;;;;;;9.90;6.80;;;;;;;19.82;67.25;96642.34;108843;1274;90394;-88
2023/07/05 05:08:44;;;;;;;10.40;6.80;;;;;;;19.92;67.18;96637.27;108959;1274;22543;-86
2023/07/05 05:11:12;;;;;;;12.30;7.50;;;;;;;20.03;66.94;96633.31;108911;1274;23499;-87
2023/07/05 05:13:41;;;;;;;11.90;7.20;;;;;;;20.14;66.86;96635.31;108883;1274;24659;-87
2023/07/05 05:16:09;;;;;;;8.50;6.90;;;;;;;20.27;66.92;96636.77;108854;1271;29014;-87
2023/07/05 05:18:38;;;;;;;10.00;6.70;;;;;;;20.43;66.85;96642.48;108900;1274;22586;-88
2023/07/05 05:21:08;;;;;;;10.60;6.60;;;;;;;20.62;66.77;96641.67;108916;1274;23749;-87
2023/07/05 05:23:40;;;;;;;9.80;6.30;;;;;;;21.08;67.57;96634.45;108900;1274;22539;-87
2023/07/05 05:26:09;;;;;;;8.70;5.60;;;;;;;22.49;68.85;96630.00;108982;1274;32593;-88
2023/07/05 05:28:37;;;;;;;9.60;6.60;;;;;;;24.31;67.01;96631.25;109027;1267;25245;-88
2023/07/05 05:31:11;;;;;;;8.20;6.00;;;;;;;25.93;64.35;96629.11;108911;1274;25348;-89
2023/07/05 05:33:42;;;;;;;8.20;6.10;;;;;;;27.24;61.19;96630.00;108952;1274;22520;-87
2023/07/05 05:36:10;;;;;;;9.30;6.10;;;;;;;28.16;58.69;96634.73;108893;1274;22606;-89
2023/07/05 05:38:40;;;;;;;8.20;5.50;;;;;;;28.84;56.61;96635.64;108965;1274;25392;-87
2023/07/05 05:41:10;;;;;;;7.10;5.70;;;;;;;29.23;54.23;96640.76;108911;1272;23052;-87
2023/07/05 05:43:39;;;;;;;8.50;6.50;;;;;;;29.48;52.70;96636.48;108972;1269;25384;-87
2023/07/05 05:46:08;;;;;;;10.20;6.10;;;;;;;29.79;51.92;96636.10;108935;1269;31530;-88
2023/07/05 05:48:37;;;;;;;9.60;5.70;;;;;;;30.27;51.17;96637.71;108934;1274;22520;-87
2023/07/05 05:51:05;;;;;;;8.40;5.70;;;;;;;30.75;50.22;96636.73;108965;1269;24289;-88
2023/07/05 05:53:34;;;;;;;7.50;5.70;;;;;;;31.15;49.21;96634.20;108972;1274;22534;-89
2023/07/05 05:56:04;;;;;;;7.80;5.70;;;;;;;31.41;48.02;96633.37;108934;1274;23665;-88
2023/07/05 05:58:33;;;;;;;8.80;6.30;;;;;;;31.58;47.32;96635.85;108956;1268;22530;-88
2023/07/05 06:01:03;;;;;;;8.90;6.50;;;;;;;31.82;46.57;96630.46;108923;1274;22608;-89
2023/07/05 06:03:32;;;;;;;8.00;5.70;;;;;;;32.06;46.07;96631.09;108911;1274;22605;-88
2023/07/05 06:06:01;;;;;;;6.70;5.20;;;;;;;32.33;45.48;96634.15;108939;1267;25415;-88
2023/07/05 06:08:32;;;;;;;7.50;5.80;;;;;;;32.41;44.80;96635.80;108986;1274;22555;-88
2023/07/05 06:11:05;;;;;;;9.00;5.70;;;;;;;32.47;44.26;96635.52;108954;1274;24390;-88
2023/07/05 06:13:34;;;;;;;10.20;6.30;;;;;;;32.37;43.55;96629.52;108969;1275;22532;-88
2023/07/05 06:16:04;;;;;;;8.70;6.00;;;;;;;32.26;43.63;96630.20;108966;1274;31851;-89
2023/07/05 06:18:33;;;;;;;8.30;5.60;;;;;;;32.36;43.40;96630.95;109006;1274;22532;-90
2023/07/05 06:21:01;;;;;;;9.60;5.70;;;;;;;32.46;42.80;96631.95;108942;1271;22529;-90
2023/07/05 06:23:30;;;;;;;7.50;5.40;;;;;;;32.59;42.69;96628.95;108982;1272;25304;-89
2023/07/05 06:25:59;;;;;;;6.60;5.50;;;;;;;32.58;42.14;96630.55;107630;1274;1773313;-88
2023/07/05 06:28:28;;;;;;;7.80;5.50;;;;;;;32.47;41.68;96626.52;108956;1272;22521;-90
2023/07/05 06:30:56;;;;;;;;;;;;;;;32.46;41.76;96623.46;109006;1274;22554;-90
2023/07/05 06:33:25;;;;;;;7.20;5.50;;;;;;;32.49;41.69;96623.97;108939;1274;25255;-89
2023/07/05 06:35:54;;;;;;;9.80;5.30;;;;;;;32.52;41.68;96622.81;108920;1273;27131;-89
2023/07/05 06:38:23;;;;;;;8.30;6.00;;;;;;;32.49;41.65;96624.10;108983;1274;22782;-89
2023/07/05 06:40:53;;;;;;;;;;;;;;;32.59;41.57;96623.63;108974;1271;22638;-90
2023/07/05 06:43:22;;;;;;;8.20;5.70;;;;;;;32.65;41.14;96622.86;108953;1269;22576;-89
2023/07/05 06:45:55;;;;;;;9.10;5.90;;;;;;;32.62;41.19;96618.54;108859;1271;50866;-90
2023/07/05 06:48:25;;;;;;;7.40;5.90;;;;;;;32.51;41.18;96618.22;108973;1274;22533;-91
2023/07/05 06:50:55;;;;;;;8.70;5.70;;;;;;;32.59;41.32;96619.08;108950;1274;22546;-89
2023/07/05 06:53:25;;;;;;;6.70;5.10;;;;;;;32.59;41.12;96620.80;108963;1271;23466;-90
2023/07/05 06:55:54;;;;;;;8.40;5.50;;;;;;;32.62;40.88;96623.23;108906;1274;60061;-89
2023/07/05 06:58:24;;;;;;;8.90;5.60;;;;;;;32.72;40.92;96615.44;108948;1274;22584;-89
2023/07/05 07:00:52;;;;;;;6.40;4.60;;;;;;;32.79;40.55;96618.17;108976;1267;23294;-90
2023/07/05 07:03:22;;;;;;;7.30;5.10;;;;;;;32.75;40.22;96617.10;108978;1267;25371;-91
2023/07/05 07:05:54;;;;;;;6.90;5.10;;;;;;;32.68;40.33;96616.92;108953;1271;53130;-89
2023/07/05 07:08:24;;;;;;;6.40;5.30;;;;;;;32.59;40.05;96619.63;108990;1271;24779;-89
2023/07/05 07:10:53;;;;;;;8.10;5.10;;;;;;;32.51;40.22;96617.10;108957;1274;24321;-90
2023/07/05 07:13:22;;;;;;;9.30;5.20;;;;;;;32.58;40.21;96613.21;108942;1267;22522;-89
2023/07/05 07:16:00;;;;;;;7.50;5.00;;;;;;;32.54;39.79;96613.52;108904;1267;34958;-90
2023/07/05 07:18:28;;;;;;;9.10;5.20;;;;;;;32.36;39.06;96614.26;108966;1274;22710;-90
2023/07/05 07:20:59;;;;;;;6.90;5.10;;;;;;;32.00;38.95;96610.98;109004;1269;22533;-90
2023/07/05 07:23:28;;;;;;;8.40;5.40;;;;;;;31.79;39.51;96611.25;108975;1274;22548;-91
2023/07/05 07:26:02;;;;;;;7.10;4.90;;;;;;;31.82;39.48;96609.57;108908;1274;77128;-90
2023/07/05 07:28:30;;;;;;;7.00;4.80;;;;;;;31.77;39.52;96610.11;108989;1274;22533;-90
2023/07/05 07:31:08;;;;;;;8.30;5.10;;;;;;;31.94;39.95;96607.40;108976;1274;22521;-90
2023/07/05 07:33:38;;;;;;;7.50;5.50;;;;;;;32.04;39.43;96609.97;108989;1274;22641;-90
2023/07/05 07:36:12;;;;;;;8.40;5.10;;;;;;;31.91;39.81;96608.23;108924;1274;44390;-89
2023/07/05 07:38:42;;;;;;;6.80;4.70;;;;;;;32.01;39.98;96601.39;108958;1274;22522;-89
2023/07/05 07:41:16;;;;;;;8.40;5.90;;;;;;;32.12;40.10;96603.77;108927;1267;22532;-89
2023/07/05 07:43:45;;;;;;;7.60;5.20;;;;;;;32.21;40.13;96604.46;108955;1274;22553;-89
2023/07/05 07:46:16;;;;;;;7.30;5.70;;;;;;;32.23;39.69;96603.90;108867;1275;31538;-89
2023/07/05 07:48:48;;;;;;;7.20;5.10;;;;;;;32.30;39.79;96608.58;108967;1274;25242;-89
2023/07/05 07:51:18;;;;;;;8.10;5.40;;;;;;;32.05;39.40;96608.46;109051;1271;22575;-89
2023/07/05 07:53:47;;;;;;;8.10;5.50;;;;;;;31.78;39.74;96607.91;109045;1274;22514;-89
2023/07/05 07:56:17;;;;;;;10.10;5.50;;;;;;;31.57;39.39;96607.42;109056;1268;33223;-89
2023/07/05 07:58:49;;;;;;;9.00;5.20;;;;;;;31.35;39.77;96610.67;108974;1272;22616;-89
2023/07/05 08:01:20;;;;;;;8.10;5.00;;;;;;;31.49;40.23;96609.75;108944;1273;22578;-88
2023/07/05 08:03:49;;;;;;;8.30;5.30;;;;;;;31.53;40.33;96610.63;108933;1275;22538;-88
2023/07/05 08:06:18;;;;;;;6.70;4.90;;;;;;;31.60;39.91;96611.55;108941;1274;68523;-88
2023/07/05 08:08:46;;;;;;;;;;;;;;;31.63;39.59;96609.93;108953;1272;22506;-88
2023/07/05 08:11:15;;;;;;;7.40;5.40;;;;;;;31.49;38.75;96609.69;108923;1269;22529;-88
2023/07/05 08:13:46;;;;;;;6.20;5.20;;;;;;;31.22;38.74;96607.11;108960;1275;22608;-88
2023/07/05 08:16:16;;;;;;;7.20;5.00;;;;;;;31.17;39.11;96603.88;108908;1269;36997;-88
2023/07/05 08:18:47;;;;;;;6.40;5.00;;;;;;;31.29;39.30;96604.52;108953;1271;25419;-88
2023/07/05 08:21:19;;;;;;;7.60;5.20;;;;;;;31.15;38.97;96604.30;108940;1274;22552;-89
2023/07/05 08:23:48;;;;;;;7.40;5.50;;;;;;;30.98;38.98;96598.98;108962;1275;22576;-87
2023/07/05 08:26:17;;;;;;;8.50;5.60;;;;;;;30.93;38.97;96599.27;108934;1274;25445;-88
2023/07/05 08:28:47;;;;;;;8.50;4.60;;;;;;;30.90;38.79;96599.69;108903;1271;22521;-87
2023/07/05 08:31:16;;;;;;;6.60;5.10;;;;;;;30.88;38.19;96599.98;108973;1272;22538;-87
2023/07/05 08:33:45;;;;;;;5.90;4.90;;;;;;;30.50;37.68;96603.08;108955;1274;22580;-87
2023/07/05 08:36:28;;;;;;;5.90;4.70;;;;;;;30.54;38.53;96598.73;108914;1272;27848;-87
2023/07/05 08:38:59;;;;;;;7.40;4.80;;;;;;;30.49;38.24;96602.70;108953;1274;25487;-87
2023/07/05 08:41:38;;;;;;;6.10;4.70;;;;;;;30.50;38.82;96600.65;108955;1268;22513;-88
2023/07/05 08:44:19;;;;;;;8.20;5.30;;;;;;;30.57;38.33;96598.69;108921;1274;25384;-88
2023/07/05 08:46:55;;;;;;;9.00;4.90;;;;;;;30.61;38.47;96594.27;108950;1269;25223;-87
2023/07/05 08:49:27;;;;;;;7.60;5.10;;;;;;;30.71;38.45;96593.85;108997;1268;22568;-87
2023/07/05 08:51:56;;;;;;;6.60;4.90;;;;;;;30.74;38.50;96590.52;108957;1274;22535;-87
2023/07/05 08:54:31;;;;;;;6.60;4.60;;;;;;;30.52;38.12;96593.42;108961;1274;32220;-86
2023/07/05 08:57:05;;;;;;;6.50;4.50;;;;;;;30.11;38.16;96594.41;108857;1273;168696;-86
2023/07/05 08:59:50;;;;;;;7.60;4.40;;;;;;;29.63;38.03;96592.50;108989;1271;22531;-87
2023/07/05 09:02:20;;;;;;;6.50;5.00;;;;;;;29.39;38.33;96586.42;108992;1274;24222;-87
2023/07/05 09:04:49;;;;;;;6.20;4.50;;;;;;;29.39;38.87;96589.54;108813;1275;25414;-87
2023/07/05 09:07:24;;;;;;;6.80;4.90;;;;;;;29.44;39.09;96585.30;108822;1275;22535;-87
2023/07/05 09:10:04;;;;;;;7.40;5.10;;;;;;;29.41;38.91;96580.63;108877;1267;22545;-87
2023/07/05 09:12:39;;;;;;;9.40;5.20;;;;;;;29.37;39.25;96578.32;108838;1275;22556;-86
2023/07/05 09:15:21;;;;;;;8.50;4.10;;;;;;;29.29;39.07;96574.40;108871;1267;29396;-85
2023/07/05 09:17:53;;;;;;;6.80;4.80;;;;;;;28.92;38.52;96578.13;108942;1270;22613;-86
2023/07/05 09:20:40;;;;;;;8.60;4.80;;;;;;;28.54;38.59;96573.33;108987;1271;25426;-87
2023/07/05 09:23:15;;;;;;;6.80;4.40;;;;;;;28.44;39.54;96569.94;108919;1274;23178;-86
2023/07/05 09:25:48;;;;;;;7.80;4.80;;;;;;;28.44;39.31;96567.21;108908;1274;23799;-86
2023/07/05 09:28:21;;;;;;;11.30;4.90;;;;;;;28.41;39.23;96568.23;108973;1271;26873;-86
2023/07/05 09:30:52;;;;;;;8.30;4.60;;;;;;;28.37;39.24;96565.91;109025;1251;22586;-86
2023/07/05 09:33:27;;;;;;;10.40;5.00;;;;;;;28.38;39.28;96564.96;109019;1267;22555;-86
2023/07/05 09:36:02;;;;;;;5.50;4.80;;;;;;;28.35;38.88;96560.46;108871;1274;33972;-86
2023/07/05 09:38:35;;;;;;;5.60;4.00;;;;;;;28.40;39.55;96556.47;108882;1274;22986;-86
2023/07/05 09:41:09;;;;;;;6.40;4.10;;;;;;;28.54;39.73;96550.17;108930;1267;25305;-86
2023/07/05 09:43:39;;;;;;;7.30;4.00;;;;;;;28.62;40.17;96552.25;108931;1274;22539;-85
2023/07/05 09:46:18;;;;;;;5.80;3.80;;;;;;;28.61;39.76;96549.30;108904;1271;23923;-85
2023/07/05 09:48:47;;;;;;;7.80;4.60;;;;;;;28.46;39.28;96548.89;108942;1264;22950;-86
2023/07/05 09:51:16;;;;;;;6.60;3.80;;;;;;;28.14;39.11;96547.11;108944;1271;22146;-86
2023/07/05 09:53:50;;;;;;;6.20;3.90;;;;;;;27.93;39.25;96548.88;108925;1274;22576;-86
2023/07/05 09:56:26;;;;;;;5.70;4.30;;;;;;;27.89;39.51;96546.86;108822;1275;65641;-86
2023/07/05 09:59:08;;;;;;;6.40;3.90;;;;;;;27.84;39.46;96546.23;108801;1274;23992;-87
2023/07/05 10:01:40;;;;;;;5.70;3.80;;;;;;;27.93;39.90;96542.96;108875;1275;22523;-87
2023/07/05 10:04:12;;;;;;;5.90;3.80;;;;;;;28.03;40.23;96543.88;108835;1268;26214;-86
2023/07/05 10:06:44;;;;;;;6.20;4.10;;;;;;;27.97;39.66;96542.64;108937;1274;22527;-86
2023/07/05 10:09:17;;;;;;;6.20;4.20;;;;;;;27.77;39.37;96539.73;108905;1260;22596;-85
2023/07/05 10:11:48;;;;;;;5.80;4.40;;;;;;;27.54;40.15;96542.45;108906;1274;24480;-85
2023/07/05 10:14:20;;;;;;;7.30;4.80;;;;;;;27.32;40.83;96543.62;108817;1268;133128;-86
2023/07/05 10:16:52;;;;;;;5.90;4.30;;;;;;;27.34;41.98;96542.92;108919;1267;22653;-86
2023/07/05 10:19:26;;;;;;;7.00;4.40;;;;;;;27.49;42.06;96541.21;108926;1260;22527;-85
2023/07/05 10:22:01;;;;;;;5.60;4.50;;;;;;;27.58;42.19;96534.27;108925;1268;25403;-85
2023/07/05 10:24:33;;;;;;;7.00;4.80;;;;;;;27.75;42.76;96526.10;108898;1270;23934;-86
2023/07/05 10:27:16;;;;;;;7.30;4.40;;;;;;;27.86;42.24;96531.36;108927;1274;25765;-86
2023/07/05 10:29:47;;;;;;;7.60;4.30;;;;;;;27.84;42.46;96528.34;108943;1274;22683;-87
2023/07/05 10:32:20;;;;;;;5.50;4.10;;;;;;;27.85;42.28;96532.61;108923;1267;22556;-86
2023/07/05 10:34:52;;;;;;;7.00;4.30;;;;;;;27.89;42.36;96534.17;108810;1274;117902;-86
2023/07/05 10:37:34;;;;;;;6.10;4.10;;;;;;;27.70;41.91;96531.17;108907;1274;22527;-86
2023/07/05 10:40:08;;;;;;;6.70;4.40;;;;;;;27.59;41.86;96529.06;108966;1271;22527;-86
2023/07/05 10:42:40;;;;;;;5.90;4.20;;;;;;;27.45;42.08;96527.05;108918;1271;22520;-85
2023/07/05 10:45:14;;;;;;;7.70;4.80;;;;;;;27.28;42.09;96530.39;108906;1274;24993;-86
2023/07/05 10:47:45;;;;;;;6.00;4.10;;;;;;;27.05;41.79;96529.29;108950;1274;26463;-87
2023/07/05 10:50:16;;;;;;;6.20;4.10;;;;;;;26.93;42.18;96528.63;108915;1274;24406;-86
2023/07/05 10:52:51;;;;;;;5.80;4.10;;;;;;;26.84;42.15;96523.40;108919;1274;22551;-87
2023/07/05 10:55:23;;;;;;;8.30;4.50;;;;;;;26.90;42.53;96520.55;108849;1271;53460;-87
2023/07/05 10:57:59;;;;;;;8.70;4.70;;;;;;;27.06;42.78;96513.50;108907;1274;22641;-87
2023/07/05 11:00:37;;;;;;;5.60;4.00;;;;;;;27.24;42.94;96509.94;108956;1271;22596;-86
2023/07/05 11:03:10;;;;;;;6.00;4.30;;;;;;;27.38;42.60;96503.64;108948;1268;22527;-86
2023/07/05 11:05:46;;;;;;;5.40;4.20;;;;;;;27.49;42.63;96501.13;108956;1274;25295;-86
2023/07/05 11:08:19;;;;;;;6.40;4.40;;;;;;;27.59;42.40;96499.88;108967;1271;24259;-86
2023/07/05 11:10:49;;;;;;;6.00;4.40;;;;;;;27.66;42.91;96496.77;108963;1271;22510;-87
2023/07/05 11:13:20;;;;;;;5.70;4.20;;;;;;;27.72;42.75;96497.23;109011;1270;24229;-86
2023/07/05 11:15:50;;;;;;;6.80;4.60;;;;;;;27.62;41.99;96494.35;108942;1271;85841;-87
2023/07/05 11:18:20;;;;;;;5.50;3.90;;;;;;;27.39;41.71;96490.34;109081;1268;23948;-87
2023/07/05 11:20:53;;;;;;;5.50;4.10;;;;;;;27.27;42.01;96493.14;109250;1271;22527;-86
2023/07/05 11:23:53;;;;;;;6.10;4.30;;;;;;;27.18;42.02;96497.18;109304;1274;24495;-87
2023/07/05 11:26:44;;;;;;;5.50;3.80;;;;;;;27.11;41.52;96490.50;109288;1256;25249;-87
2023/07/05 11:29:47;;;;;;;4.80;3.70;;;;;;;27.20;42.32;96484.98;109221;1268;22524;-86
2023/07/05 11:32:16;;;;;;;10.30;4.70;;;;;;;27.34;41.90;96483.89;109287;1268;22588;-86
2023/07/05 11:34:53;;;;;;;6.10;4.20;;;;;;;27.38;41.91;96478.59;109210;1274;22547;-87
2023/07/05 11:37:42;;;;;;;9.80;4.40;;;;;;;27.46;42.01;96477.10;109227;1268;22541;-85
2023/07/05 11:41:04;;;;;;;6.50;4.10;;;;;;;27.56;41.81;96479.26;109361;1268;22580;-87
2023/07/05 11:43:41;;;;;;;5.60;4.10;;;;;;;27.48;41.25;96475.48;109298;1274;22563;-86
2023/07/05 11:46:48;;;;;;;5.20;3.90;;;;;;;27.42;41.38;96474.07;109362;1270;78053;-86